• Join FlightAware (Why Join?)
  • Login
  • US Flag 
08:30AM EDT


 

Airport Tracker/Info


-or-


 

Live Flight TrackerFlight Track Log ✈ KAP29 ✈ 21-Jul-2013 ✈ KSLK - KBOS

Flight Track Log - Related Links

Times and Time Zones

All times are in EDT time to prevent confusion due to time zone crossing. See the KAP29 flight status page for this flight to view local times or setup timezone preferences in your user account.

Time Position Orientation Groundspeed Altitude Reporting Facility
EDT Latitude Longitude Course Direction KTS MPH feet Rate Location/Type
11:36AM 44.4875 -74.0639 109° East 155 178 5,900  Level Boston Center
11:37AM 44.4733 -74.0256 117° Southeast 155 178 6,700 840 Climbing Boston Center
11:38AM 44.4469 -73.9725 125° Southeast 155 178 7,600 600 Climbing Boston Center
11:39AM 44.4228 -73.9197 123° Southeast 151 174 8,100 420 Climbing Boston Center
11:40AM 44.3922 -73.8608 126° Southeast 151 174 8,600 480 Climbing Boston Center
11:41AM 44.2770 -73.9748 109° East  Level FlightAware Approximate
11:41AM 44.3656 -73.8108 127° Southeast 156 180 9,100  Level Boston Center
11:42AM 44.3392 -73.7550 123° Southeast 156 180 9,100  Level Boston Center
11:43AM 44.3108 -73.6964 124° Southeast 170 196 9,100  Level Boston Center
11:44AM 44.2800 -73.6347 125° Southeast 181 208 9,100  Level Boston Center
11:45AM 44.2494 -73.5733 125° Southeast 181 208 9,100  Level Boston Center
11:46AM 44.2208 -73.5147 124° Southeast 181 208 9,100  Level Boston Center
11:47AM 44.1922 -73.4564 124° Southeast 181 208 9,100  Level Boston Center
11:48AM 44.1636 -73.3981 124° Southeast 181 208 9,100  Level Boston Center
11:49AM 44.1328 -73.3397 126° Southeast 176 203 9,100  Level Boston Center
11:50AM 44.1061 -73.2872 125° Southeast 176 203 9,100  Level Boston Center
11:51AM 44.0772 -73.2292 125° Southeast 195 224 9,100  Level Boston Center
11:52AM 44.0486 -73.1736 126° Southeast 200 230 9,100 -60 Level Boston Center
11:53AM 44.0197 -73.1186 126° Southeast 189 217 9,000 -60 Descending Boston Center
11:54AM 43.9931 -73.0606 123° Southeast 184 212 9,000  Level Boston Center
11:55AM 43.9642 -73.0083 128° Southeast 179 206 9,000  Level Boston Center
11:56AM 43.9372 -72.9503 123° Southeast 179 206 9,000  Level Boston Center
11:57AM 43.9083 -72.8953 126° Southeast 173 199 9,000  Level Boston Center
11:58AM 43.8814 -72.8406 124° Southeast 173 199 9,000  Level Boston Center
11:59AM 43.8525 -72.7769 122° Southeast 179 206 9,000  Level Boston Center
12:00PM 43.8256 -72.7106 119° Southeast 184 212 9,000  Level Boston Center
12:01PM 43.7986 -72.6531 123° Southeast 184 212 9,000  Level Boston Center
12:02PM 43.7694 -72.6011 128° Southeast 184 212 9,000  Level Boston Center
12:03PM 43.7403 -72.5436 125° Southeast 174 200 9,000  Level Boston Center
12:04PM 43.7069 -72.4917 132° Southeast 174 200 9,000  Level Boston Center
12:05PM 43.6758 -72.4372 128° Southeast 174 200 9,000  Level Boston Center
12:06PM 43.6444 -72.3856 130° Southeast 174 200 9,000  Level Boston Center
12:07PM 43.6153 -72.3283 125° Southeast 174 200 9,000  Level Boston Center
12:08PM 43.5861 -72.2711 125° Southeast 179 206 9,000  Level Boston Center
12:09PM 43.5589 -72.2194 126° Southeast 179 206 9,000  Level Boston Center
12:10PM 43.5297 -72.1594 124° Southeast 168 193 9,000  Level Boston Center
12:11PM 43.5003 -72.1053 127° Southeast 175 201 9,100  Climbing Boston Center
12:12PM 43.4647 -72.0425 128° Southeast 175 201 9,100  Level Boston Center
12:13PM 43.4333 -71.9911 130° Southeast 175 201 9,100 -60 Level Boston Center
12:14PM 43.3933 -71.9514 144° Southeast 175 201 9,000 -60 Descending Boston Center
12:15PM 43.3683 -71.9031 125° Southeast 175 201 9,000  Level Boston Center
12:16PM 43.3386 -71.8378 122° Southeast 181 208 9,000  Level Boston Center
12:17PM 43.3156 -71.7867 122° Southeast 181 208 9,000  Level Boston Center
12:18PM 43.2881 -71.7214 120° Southeast 181 208 9,000  Level Boston Center
12:19PM 43.2628 -71.6675 123° Southeast 186 214 9,000  Level Boston Center
12:20PM 43.2311 -71.6050 125° Southeast 191 220 9,000 -240 Level Boston Center
12:21PM 43.2167 -71.5833 132° Southeast 184 212 8,700 -480 Descending KA90
12:22PM 43.1667 -71.5333 144° Southeast 193 222 8,300 -480 Descending KA90
12:23PM 43.1167 -71.4833 144° Southeast 197 227 7,800 -480 Descending KA90
12:24PM 43.0833 -71.4333 132° Southeast 204 235 7,400 -480 Descending KA90
12:25PM 43.0333 -71.3833 144° Southeast 202 232 6,900 -480 Descending KA90
12:26PM 43.0000 -71.3500 144° Southeast 202 232 6,500 -480 Descending KA90
12:27PM 42.9500 -71.3000 144° Southeast 202 232 6,000 -240 Descending KA90
12:28PM 42.9000 -71.2667 154° Southeast 184 212 6,000  Level KA90
12:29PM 42.8500 -71.2500 166° South 171 197 6,000  Level KA90
12:30PM 42.8000 -71.2333 166° South 170 196 6,000 -120 Level KA90
12:31PM 42.7667 -71.2167 160° South 172 198 5,800 -300 Descending KA90
12:32PM 42.7167 -71.2000 166° South 187 215 5,500 -420 Descending KA90
12:33PM 42.6500 -71.1833 170° South 191 220 5,000 -240 Descending KA90
12:34PM 42.6000 -71.1500 154° Southeast 177 204 5,000  Level KA90
12:35PM 42.5667 -71.1333 160° South 168 193 5,000  Level KA90
12:36PM 42.5167 -71.1167 166° South 167 192 5,000  Level KA90
12:37PM 42.4833 -71.1167 180° South 162 186 5,000  Level KA90
12:38PM 42.4333 -71.1333 194° South 157 181 5,000  Level KA90
12:39PM 42.4000 -71.1500 200° South 159 183 5,000 -300 Level KA90
12:40PM 42.3500 -71.1667 194° South 163 188 4,400 -540 Descending KA90
12:41PM 42.3167 -71.2000 216° Southwest 167 192 4,000 -420 Descending KA90
12:42PM 42.2667 -71.2167 194° South 167 192 3,600 -540 Descending KA90
12:43PM 42.2167 -71.2167 180° South 182 209 3,000 -300 Descending KA90
12:44PM 42.2333 -71.1667 66° East 161 185 3,000 -300 Level KA90
12:45PM 42.2667 -71.1167 48° Northeast 171 197 2,400 -600 Descending KA90
12:46PM 42.3000 -71.0667 48° Northeast 180 207 1,800 -780 Descending KA90
12:47PM 42.3333 -71.0333 36° Northeast 155 178 900 -900 Descending KA90
12:49PM 42.3500 -71.0000 62° Northeast  Level FlightAware Approximate
12:56PM 42.3630 -71.0064 62° Northeast  Level Estimated